sensor_id;sensor_type;location;lat;lon;timestamp;temperature;humidity
22132;DHT22;11232;51.748;19.390;2023-04-09T06:29:19;9.90;99.90
22132;DHT22;11232;51.748;19.390;2023-04-09T06:31:45;10.20;99.90
22132;DHT22;11232;51.748;19.390;2023-04-09T06:34:11;10.20;99.90
22132;DHT22;11232;51.748;19.390;2023-04-09T07:15:38;12.70;99.90
22132;DHT22;11232;51.748;19.390;2023-04-09T07:20:29;12.80;99.90
22132;DHT22;11232;51.748;19.390;2023-04-09T07:22:55;12.90;99.90
22132;DHT22;11232;51.748;19.390;2023-04-09T07:25:21;13.20;99.90
22132;DHT22;11232;51.748;19.390;2023-04-09T07:27:47;13.50;99.90
22132;DHT22;11232;51.748;19.390;2023-04-09T07:30:14;13.30;99.90
22132;DHT22;11232;51.748;19.390;2023-04-09T07:32:40;13.60;99.90
22132;DHT22;11232;51.748;19.390;2023-04-09T07:35:06;13.80;99.90
22132;DHT22;11232;51.748;19.390;2023-04-09T07:37:34;14.50;99.90
22132;DHT22;11232;51.748;19.390;2023-04-09T07:40:00;14.90;99.90
22132;DHT22;11232;51.748;19.390;2023-04-09T07:42:26;15.20;99.90
22132;DHT22;11232;51.748;19.390;2023-04-09T07:44:52;15.60;99.90
22132;DHT22;11232;51.748;19.390;2023-04-09T07:47:18;16.30;99.90
22132;DHT22;11232;51.748;19.390;2023-04-09T07:49:43;16.90;99.90
22132;DHT22;11232;51.748;19.390;2023-04-09T07:52:09;17.40;99.90
22132;DHT22;11232;51.748;19.390;2023-04-09T07:54:35;17.70;99.90
22132;DHT22;11232;51.748;19.390;2023-04-09T07:57:00;17.40;99.90
22132;DHT22;11232;51.748;19.390;2023-04-09T07:59:26;17.40;99.90
22132;DHT22;11232;51.748;19.390;2023-04-09T08:01:52;16.80;99.90
22132;DHT22;11232;51.748;19.390;2023-04-09T08:04:18;16.60;99.90
22132;DHT22;11232;51.748;19.390;2023-04-09T08:06:43;16.80;99.90
22132;DHT22;11232;51.748;19.390;2023-04-09T08:09:14;16.90;99.90
22132;DHT22;11232;51.748;19.390;2023-04-09T08:11:40;17.30;99.90
22132;DHT22;11232;51.748;19.390;2023-04-09T08:14:05;17.90;99.90
22132;DHT22;11232;51.748;19.390;2023-04-09T08:16:31;18.60;99.90
22132;DHT22;11232;51.748;19.390;2023-04-09T08:18:57;19.50;99.90
22132;DHT22;11232;51.748;19.390;2023-04-09T08:21:22;21.30;99.90
22132;DHT22;11232;51.748;19.390;2023-04-09T08:23:48;22.60;98.80
22132;DHT22;11232;51.748;19.390;2023-04-09T08:26:14;23.70;95.90
22132;DHT22;11232;51.748;19.390;2023-04-09T08:28:39;25.20;92.10
22132;DHT22;11232;51.748;19.390;2023-04-09T08:31:08;25.70;91.10
22132;DHT22;11232;51.748;19.390;2023-04-09T08:33:33;26.60;87.40
22132;DHT22;11232;51.748;19.390;2023-04-09T08:35:59;26.80;86.80
22132;DHT22;11232;51.748;19.390;2023-04-09T08:38:25;26.80;82.40
22132;DHT22;11232;51.748;19.390;2023-04-09T08:40:50;26.80;82.00
22132;DHT22;11232;51.748;19.390;2023-04-09T08:43:18;27.60;83.10
22132;DHT22;11232;51.748;19.390;2023-04-09T08:48:13;28.40;77.40
22132;DHT22;11232;51.748;19.390;2023-04-09T08:50:39;27.80;78.90
22132;DHT22;11232;51.748;19.390;2023-04-09T08:53:05;26.90;80.00
22132;DHT22;11232;51.748;19.390;2023-04-09T08:55:33;25.30;82.70
22132;DHT22;11232;51.748;19.390;2023-04-09T08:58:07;24.00;87.20
22132;DHT22;11232;51.748;19.390;2023-04-09T09:00:35;22.80;90.10
22132;DHT22;11232;51.748;19.390;2023-04-09T09:03:03;22.20;90.80
22132;DHT22;11232;51.748;19.390;2023-04-09T09:05:36;23.30;90.40
22132;DHT22;11232;51.748;19.390;2023-04-09T09:08:02;23.20;90.30
22132;DHT22;11232;51.748;19.390;2023-04-09T09:15:41;22.70;90.10
22132;DHT22;11232;51.748;19.390;2023-04-09T09:18:07;22.40;90.60
22132;DHT22;11232;51.748;19.390;2023-04-09T09:20:33;21.40;91.80
22132;DHT22;11232;51.748;19.390;2023-04-09T09:22:58;20.60;92.80
22132;DHT22;11232;51.748;19.390;2023-04-09T09:25:24;20.30;93.80
22132;DHT22;11232;51.748;19.390;2023-04-09T09:27:51;19.80;94.00
22132;DHT22;11232;51.748;19.390;2023-04-09T09:30:24;18.70;95.50
22132;DHT22;11232;51.748;19.390;2023-04-09T09:33:12;18.10;95.90
22132;DHT22;11232;51.748;19.390;2023-04-09T09:35:51;17.20;98.60
22132;DHT22;11232;51.748;19.390;2023-04-09T09:38:18;16.60;99.90
22132;DHT22;11232;51.748;19.390;2023-04-09T09:40:44;16.50;99.90
22132;DHT22;11232;51.748;19.390;2023-04-09T09:43:11;16.30;99.90
22132;DHT22;11232;51.748;19.390;2023-04-09T09:45:37;15.90;99.90
22132;DHT22;11232;51.748;19.390;2023-04-09T09:48:04;15.80;99.90
22132;DHT22;11232;51.748;19.390;2023-04-09T09:50:30;15.50;99.90
22132;DHT22;11232;51.748;19.390;2023-04-09T09:53:02;15.20;99.90
22132;DHT22;11232;51.748;19.390;2023-04-09T09:55:31;15.10;99.90
22132;DHT22;11232;51.748;19.390;2023-04-09T09:58:01;14.80;99.90
22132;DHT22;11232;51.748;19.390;2023-04-09T10:00:30;14.50;99.90
22132;DHT22;11232;51.748;19.390;2023-04-09T10:03:00;14.80;99.90
22132;DHT22;11232;51.748;19.390;2023-04-09T10:05:26;14.40;99.90
22132;DHT22;11232;51.748;19.390;2023-04-09T10:07:57;14.60;99.90
22132;DHT22;11232;51.748;19.390;2023-04-09T10:10:25;14.50;99.90
22132;DHT22;11232;51.748;19.390;2023-04-09T10:12:51;14.70;99.90
22132;DHT22;11232;51.748;19.390;2023-04-09T10:15:18;15.20;99.90
22132;DHT22;11232;51.748;19.390;2023-04-09T10:17:44;14.30;99.90
22132;DHT22;11232;51.748;19.390;2023-04-09T10:20:14;14.20;99.90
22132;DHT22;11232;51.748;19.390;2023-04-09T10:22:45;14.30;99.90
22132;DHT22;11232;51.748;19.390;2023-04-09T10:25:12;14.60;99.90
22132;DHT22;11232;51.748;19.390;2023-04-09T10:27:38;15.00;99.90
22132;DHT22;11232;51.748;19.390;2023-04-09T10:30:05;15.40;99.90
22132;DHT22;11232;51.748;19.390;2023-04-09T10:32:35;15.00;99.90
22132;DHT22;11232;51.748;19.390;2023-04-09T10:35:02;14.30;99.90
22132;DHT22;11232;51.748;19.390;2023-04-09T10:37:27;14.20;99.90
22132;DHT22;11232;51.748;19.390;2023-04-09T10:39:54;13.80;99.90
22132;DHT22;11232;51.748;19.390;2023-04-09T10:42:34;13.40;99.90
22132;DHT22;11232;51.748;19.390;2023-04-09T10:47:34;12.80;99.90
22132;DHT22;11232;51.748;19.390;2023-04-09T10:50:20;13.10;99.90
22132;DHT22;11232;51.748;19.390;2023-04-09T10:52:51;12.90;99.90
